sensor_id;sensor_type;location;lat;lon;timestamp;pressure;altitude;pressure_sealevel;temperature;humidity
21960;BME280;11144;43.030;25.108;2023-02-07T00:00:16;100902.50;;;-1.59;100.00
21960;BME280;11144;43.030;25.108;2023-02-07T00:01:49;100913.53;;;-1.64;100.00
21960;BME280;11144;43.030;25.108;2023-02-07T00:03:23;100916.78;;;-1.70;100.00
21960;BME280;11144;43.030;25.108;2023-02-07T00:04:56;100922.66;;;-1.74;100.00
21960;BME280;11144;43.030;25.108;2023-02-07T00:06:32;100920.78;;;-1.78;100.00
21960;BME280;11144;43.030;25.108;2023-02-07T00:08:06;100921.44;;;-1.83;100.00
21960;BME280;11144;43.030;25.108;2023-02-07T00:09:39;100921.94;;;-1.92;100.00
21960;BME280;11144;43.030;25.108;2023-02-07T00:11:14;100921.81;;;-1.95;100.00
21960;BME280;11144;43.030;25.108;2023-02-07T00:12:48;100923.50;;;-1.97;100.00
21960;BME280;11144;43.030;25.108;2023-02-07T00:14:21;100913.88;;;-1.99;100.00
21960;BME280;11144;43.030;25.108;2023-02-07T00:15:55;100921.53;;;-2.02;100.00
21960;BME280;11144;43.030;25.108;2023-02-07T00:17:28;100924.06;;;-2.04;100.00
21960;BME280;11144;43.030;25.108;2023-02-07T00:19:01;100928.34;;;-2.04;100.00
21960;BME280;11144;43.030;25.108;2023-02-07T00:20:35;100922.13;;;-2.09;100.00
21960;BME280;11144;43.030;25.108;2023-02-07T00:22:09;100917.44;;;-2.18;100.00
21960;BME280;11144;43.030;25.108;2023-02-07T00:23:43;100917.19;;;-2.24;100.00
21960;BME280;11144;43.030;25.108;2023-02-07T00:25:16;100921.19;;;-2.32;100.00
21960;BME280;11144;43.030;25.108;2023-02-07T00:26:49;100924.53;;;-2.34;100.00
21960;BME280;11144;43.030;25.108;2023-02-07T00:28:24;100926.34;;;-2.32;100.00
21960;BME280;11144;43.030;25.108;2023-02-07T00:29:57;100934.00;;;-2.35;100.00
21960;BME280;11144;43.030;25.108;2023-02-07T00:31:32;100931.25;;;-2.39;100.00
21960;BME280;11144;43.030;25.108;2023-02-07T00:33:06;100925.94;;;-2.42;100.00
21960;BME280;11144;43.030;25.108;2023-02-07T00:34:40;100929.50;;;-2.39;100.00
21960;BME280;11144;43.030;25.108;2023-02-07T00:36:15;100929.44;;;-2.40;100.00
21960;BME280;11144;43.030;25.108;2023-02-07T00:37:50;100923.28;;;-2.44;100.00
21960;BME280;11144;43.030;25.108;2023-02-07T00:39:23;100927.69;;;-2.41;100.00
21960;BME280;11144;43.030;25.108;2023-02-07T00:40:56;100946.16;;;-2.34;100.00
21960;BME280;11144;43.030;25.108;2023-02-07T00:42:29;100930.59;;;-2.34;100.00
21960;BME280;11144;43.030;25.108;2023-02-07T00:44:03;100925.50;;;-2.32;100.00
21960;BME280;11144;43.030;25.108;2023-02-07T00:45:36;100926.63;;;-2.26;100.00
21960;BME280;11144;43.030;25.108;2023-02-07T00:47:09;100930.97;;;-2.25;100.00
21960;BME280;11144;43.030;25.108;2023-02-07T00:48:43;100926.03;;;-2.19;100.00
21960;BME280;11144;43.030;25.108;2023-02-07T00:50:15;100928.56;;;-2.20;100.00
21960;BME280;11144;43.030;25.108;2023-02-07T00:51:49;100929.56;;;-2.17;100.00
21960;BME280;11144;43.030;25.108;2023-02-07T00:53:23;100931.38;;;-2.14;100.00
21960;BME280;11144;43.030;25.108;2023-02-07T00:54:57;100929.75;;;-2.12;100.00
21960;BME280;11144;43.030;25.108;2023-02-07T00:56:30;100931.44;;;-2.13;100.00
21960;BME280;11144;43.030;25.108;2023-02-07T00:58:04;100931.44;;;-2.13;100.00
21960;BME280;11144;43.030;25.108;2023-02-07T00:59:36;100927.09;;;-2.14;100.00
21960;BME280;11144;43.030;25.108;2023-02-07T01:01:10;100922.81;;;-2.13;100.00
21960;BME280;11144;43.030;25.108;2023-02-07T01:02:43;100921.09;;;-2.13;100.00
21960;BME280;11144;43.030;25.108;2023-02-07T01:04:16;100916.03;;;-2.10;100.00
21960;BME280;11144;43.030;25.108;2023-02-07T01:05:49;100910.59;;;-2.16;100.00
21960;BME280;11144;43.030;25.108;2023-02-07T01:07:23;100919.59;;;-2.08;100.00
21960;BME280;11144;43.030;25.108;2023-02-07T01:08:58;100915.28;;;-2.07;100.00
21960;BME280;11144;43.030;25.108;2023-02-07T01:10:32;100911.44;;;-2.17;100.00
21960;BME280;11144;43.030;25.108;2023-02-07T01:12:05;100914.28;;;-2.11;100.00
21960;BME280;11144;43.030;25.108;2023-02-07T01:13:39;100911.38;;;-2.18;100.00
21960;BME280;11144;43.030;25.108;2023-02-07T01:15:14;100913.91;;;-2.20;100.00
21960;BME280;11144;43.030;25.108;2023-02-07T01:16:47;100917.31;;;-2.21;100.00
21960;BME280;11144;43.030;25.108;2023-02-07T01:18:21;100908.63;;;-2.23;100.00
21960;BME280;11144;43.030;25.108;2023-02-07T01:19:55;100909.41;;;-2.24;100.00
21960;BME280;11144;43.030;25.108;2023-02-07T01:21:29;100910.25;;;-2.25;100.00
21960;BME280;11144;43.030;25.108;2023-02-07T01:23:03;100906.66;;;-2.28;100.00
21960;BME280;11144;43.030;25.108;2023-02-07T01:24:38;100903.81;;;-2.34;100.00
21960;BME280;11144;43.030;25.108;2023-02-07T01:26:12;100891.44;;;-2.41;100.00
21960;BME280;11144;43.030;25.108;2023-02-07T01:27:45;100904.81;;;-2.31;100.00
21960;BME280;11144;43.030;25.108;2023-02-07T01:29:18;100901.56;;;-2.27;100.00
21960;BME280;11144;43.030;25.108;2023-02-07T01:30:52;100905.06;;;-2.25;100.00
21960;BME280;11144;43.030;25.108;2023-02-07T01:32:24;100906.81;;;-2.24;100.00
21960;BME280;11144;43.030;25.108;2023-02-07T01:33:59;100899.91;;;-2.25;100.00
21960;BME280;11144;43.030;25.108;2023-02-07T01:35:36;100908.63;;;-2.23;100.00
21960;BME280;11144;43.030;25.108;2023-02-07T01:37:09;100909.34;;;-2.25;100.00
21960;BME280;11144;43.030;25.108;2023-02-07T01:38:43;100907.66;;;-2.25;100.00
21960;BME280;11144;43.030;25.108;2023-02-07T01:40:16;100908.63;;;-2.23;100.00
21960;BME280;11144;43.030;25.108;2023-02-07T01:41:50;100905.19;;;-2.22;100.00
21960;BME280;11144;43.030;25.108;2023-02-07T01:43:25;100906.72;;;-2.27;100.00
21960;BME280;11144;43.030;25.108;2023-02-07T01:45:07;100906.81;;;-2.24;100.00
21960;BME280;11144;43.030;25.108;2023-02-07T01:46:44;100899.97;;;-2.23;100.00
21960;BME280;11144;43.030;25.108;2023-02-07T01:48:20;100899.91;;;-2.25;100.00
21960;BME280;11144;43.030;25.108;2023-02-07T01:49:56;100906.97;;;-2.21;100.00
21960;BME280;11144;43.030;25.108;2023-02-07T01:51:31;100905.19;;;-2.22;100.00
21960;BME280;11144;43.030;25.108;2023-02-07T01:53:05;100900.03;;;-2.22;100.00
21960;BME280;11144;43.030;25.108;2023-02-07T01:54:39;100899.91;;;-2.25;100.00
21960;BME280;11144;43.030;25.108;2023-02-07T01:56:14;100906.81;;;-2.24;100.00
21960;BME280;11144;43.030;25.108;2023-02-07T01:58:04;100902.47;;;-2.25;100.00
21960;BME280;11144;43.030;25.108;2023-02-07T01:59:39;100912.00;;;-2.24;100.00
21960;BME280;11144;43.030;25.108;2023-02-07T02:01:19;100912.84;;;-2.25;100.00
21960;BME280;11144;43.030;25.108;2023-02-07T02:02:55;100901.56;;;-2.27;100.00
21960;BME280;11144;43.030;25.108;2023-02-07T02:04:29;100915.28;;;-2.28;100.00
21960;BME280;11144;43.030;25.108;2023-02-07T02:06:01;100908.38;;;-2.29;100.00
21960;BME280;11144;43.030;25.108;2023-02-07T02:07:36;100920.25;;;-2.34;100.00
21960;BME280;11144;43.030;25.108;2023-02-07T02:09:12;100915.94;;;-2.33;100.00
21960;BME280;11144;43.030;25.108;2023-02-07T02:11:05;100901.28;;;-2.33;100.00
21960;BME280;11144;43.030;25.108;2023-02-07T02:13:08;100913.41;;;-2.32;100.00
21960;BME280;11144;43.030;25.108;2023-02-07T02:14:56;100915.28;;;-2.28;100.00
21960;BME280;11144;43.030;25.108;2023-02-07T02:16:38;100919.69;;;-2.27;100.00
21960;BME280;11144;43.030;25.108;2023-02-07T02:18:27;100916.97;;;-2.30;100.00
21960;BME280;11144;43.030;25.108;2023-02-07T02:20:23;100916.84;;;-2.33;100.00
21960;BME280;11144;43.030;25.108;2023-02-07T02:22:22;100910.59;;;-2.38;100.00
21960;BME280;11144;43.030;25.108;2023-02-07T02:24:12;100920.00;;;-2.40;100.00
21960;BME280;11144;43.030;25.108;2023-02-07T02:26:36;100914.31;;;-2.31;100.00
21960;BME280;11144;43.030;25.108;2023-02-07T02:30:38;100920.75;;;-2.22;100.00
21960;BME280;11144;43.030;25.108;2023-02-07T02:34:41;100924.16;;;-2.23;100.00
21960;BME280;11144;43.030;25.108;2023-02-07T02:36:24;100920.75;;;-2.22;100.00
21960;BME280;11144;43.030;25.108;2023-02-07T02:38:08;100920.88;;;-2.19;100.00
21960;BME280;11144;43.030;25.108;2023-02-07T02:39:50;100919.06;;;-2.20;100.00
21960;BME280;11144;43.030;25.108;2023-02-07T02:41:29;100914.91;;;-2.16;100.00
21960;BME280;11144;43.030;25.108;2023-02-07T02:43:11;100902.41;;;-2.26;100.00
21960;BME280;11144;43.030;25.108;2023-02-07T02:44:54;100922.38;;;-2.24;100.00
21960;BME280;11144;43.030;25.108;2023-02-07T02:46:33;100911.53;;;-2.36;100.00
21960;BME280;11144;43.030;25.108;2023-02-07T02:48:09;100913.22;;;-2.36;100.00
21960;BME280;11144;43.030;25.108;2023-02-07T02:49:45;100923.63;;;-2.35;100.00
21960;BME280;11144;43.030;25.108;2023-02-07T02:51:19;100916.69;;;-2.36;100.00
21960;BME280;11144;43.030;25.108;2023-02-07T02:52:53;100917.59;;;-2.35;100.00
21960;BME280;11144;43.030;25.108;2023-02-07T02:54:30;100916.34;;;-2.45;100.00
21960;BME280;11144;43.030;25.108;2023-02-07T02:56:17;100924.03;;;-2.46;100.00
21960;BME280;11144;43.030;25.108;2023-02-07T02:57:59;100941.59;;;-2.60;100.00
21960;BME280;11144;43.030;25.108;2023-02-07T03:00:05;100926.09;;;-2.58;100.00
21960;BME280;11144;43.030;25.108;2023-02-07T03:01:49;100936.66;;;-2.54;100.00
21960;BME280;11144;43.030;25.108;2023-02-07T03:05:53;100936.91;;;-2.48;100.00
21960;BME280;11144;43.030;25.108;2023-02-07T03:07:40;100930.06;;;-2.46;100.00
21960;BME280;11144;43.030;25.108;2023-02-07T03:09:23;100936.16;;;-2.45;100.00
21960;BME280;11144;43.030;25.108;2023-02-07T03:11:04;100937.16;;;-2.42;100.00
21960;BME280;11144;43.030;25.108;2023-02-07T03:12:43;100933.91;;;-2.38;100.00
21960;BME280;11144;43.030;25.108;2023-02-07T03:14:25;100929.72;;;-2.34;100.00
21960;BME280;11144;43.030;25.108;2023-02-07T03:16:06;100928.72;;;-2.38;100.00
21960;BME280;11144;43.030;25.108;2023-02-07T03:17:48;100936.72;;;-2.32;100.00
21960;BME280;11144;43.030;25.108;2023-02-07T03:19:25;100926.50;;;-2.29;100.00
21960;BME280;11144;43.030;25.108;2023-02-07T03:21:06;100930.84;;;-2.28;100.00
21960;BME280;11144;43.030;25.108;2023-02-07T03:22:42;100930.13;;;-2.24;100.00
21960;BME280;11144;43.030;25.108;2023-02-07T03:24:20;100922.38;;;-2.24;100.00
21960;BME280;11144;43.030;25.108;2023-02-07T03:25:56;100917.19;;;-2.24;100.00
21960;BME280;11144;43.030;25.108;2023-02-07T03:27:33;100930.25;;;-2.21;100.00
21960;BME280;11144;43.030;25.108;2023-02-07T03:29:09;100932.97;;;-2.18;100.00
21960;BME280;11144;43.030;25.108;2023-02-07T03:30:45;100925.22;;;-2.18;100.00
21960;BME280;11144;43.030;25.108;2023-02-07T03:32:21;100924.38;;;-2.17;100.00
21960;BME280;11144;43.030;25.108;2023-02-07T03:34:00;100923.53;;;-2.17;100.00
21960;BME280;11144;43.030;25.108;2023-02-07T03:35:39;100927.94;;;-2.15;100.00
21960;BME280;11144;43.030;25.108;2023-02-07T03:37:19;100922.56;;;-2.19;100.00
21960;BME280;11144;43.030;25.108;2023-02-07T03:38:54;100924.50;;;-2.14;100.00
21960;BME280;11144;43.030;25.108;2023-02-07T03:40:29;100919.34;;;-2.14;100.00
21960;BME280;11144;43.030;25.108;2023-02-07T03:42:09;100931.31;;;-2.16;100.00
21960;BME280;11144;43.030;25.108;2023-02-07T03:43:47;100925.28;;;-2.16;100.00
21960;BME280;11144;43.030;25.108;2023-02-07T03:45:21;100924.38;;;-2.17;100.00
21960;BME280;11144;43.030;25.108;2023-02-07T03:46:55;100925.16;;;-2.19;100.00
21960;BME280;11144;43.030;25.108;2023-02-07T03:48:27;100927.69;;;-2.21;100.00
21960;BME280;11144;43.030;25.108;2023-02-07T03:50:00;100924.25;;;-2.20;100.00
21960;BME280;11144;43.030;25.108;2023-02-07T03:51:34;100926.03;;;-2.19;100.00
21960;BME280;11144;43.030;25.108;2023-02-07T03:53:09;100936.50;;;-2.16;100.00
21960;BME280;11144;43.030;25.108;2023-02-07T03:54:43;100933.97;;;-2.14;100.00
21960;BME280;11144;43.030;25.108;2023-02-07T03:56:16;100928.06;;;-2.12;100.00
21960;BME280;11144;43.030;25.108;2023-02-07T03:57:50;100932.47;;;-2.09;100.00
21960;BME280;11144;43.030;25.108;2023-02-07T03:59:23;100933.34;;;-2.09;100.00
21960;BME280;11144;43.030;25.108;2023-02-07T04:00:55;100933.25;;;-2.12;100.00
21960;BME280;11144;43.030;25.108;2023-02-07T04:02:29;100934.09;;;-2.11;100.00
21960;BME280;11144;43.030;25.108;2023-02-07T04:04:03;100933.25;;;-2.12;100.00
21960;BME280;11144;43.030;25.108;2023-02-07T04:05:36;100939.16;;;-2.14;100.00
21960;BME280;11144;43.030;25.108;2023-02-07T04:07:10;100934.81;;;-2.15;100.00
21960;BME280;11144;43.030;25.108;2023-02-07T04:08:45;100938.28;;;-2.15;100.00
21960;BME280;11144;43.030;25.108;2023-02-07T04:10:18;100948.03;;;-2.30;100.00
21960;BME280;11144;43.030;25.108;2023-02-07T04:11:51;100941.41;;;-2.44;100.00
21960;BME280;11144;43.030;25.108;2023-02-07T04:13:25;100941.81;;;-2.54;100.00
21960;BME280;11144;43.030;25.108;2023-02-07T04:14:58;100941.88;;;-2.52;100.00
21960;BME280;11144;43.030;25.108;2023-02-07T04:16:32;100949.16;;;-2.44;100.00
21960;BME280;11144;43.030;25.108;2023-02-07T04:18:04;100952.19;;;-2.33;100.00
21960;BME280;11144;43.030;25.108;2023-02-07T04:19:37;100944.75;;;-2.26;100.00
21960;BME280;11144;43.030;25.108;2023-02-07T04:21:11;100948.25;;;-2.24;100.00
21960;BME280;11144;43.030;25.108;2023-02-07T04:22:44;100945.75;;;-2.22;100.00
21960;BME280;11144;43.030;25.108;2023-02-07T04:24:18;100945.88;;;-2.19;100.00
21960;BME280;11144;43.030;25.108;2023-02-07T04:25:52;100953.72;;;-2.18;100.00
21960;BME280;11144;43.030;25.108;2023-02-07T04:27:25;100952.03;;;-2.16;100.00
21960;BME280;11144;43.030;25.108;2023-02-07T04:28:58;100956.41;;;-2.15;100.00
21960;BME280;11144;43.030;25.108;2023-02-07T04:30:32;100953.78;;;-2.16;100.00
21960;BME280;11144;43.030;25.108;2023-02-07T04:32:05;100959.00;;;-2.15;100.00
21960;BME280;11144;43.030;25.108;2023-02-07T04:33:39;100951.94;;;-2.19;100.00
21960;BME280;11144;43.030;25.108;2023-02-07T04:35:12;100962.38;;;-2.17;100.00
21960;BME280;11144;43.030;25.108;2023-02-07T04:36:45;100951.13;;;-2.18;100.00
21960;BME280;11144;43.030;25.108;2023-02-07T04:38:19;100969.38;;;-2.15;100.00
21960;BME280;11144;43.030;25.108;2023-02-07T04:39:53;100957.13;;;-2.19;100.00
21960;BME280;11144;43.030;25.108;2023-02-07T04:41:27;100953.56;;;-2.21;100.00
21960;BME280;11144;43.030;25.108;2023-02-07T04:42:59;100958.63;;;-2.24;100.00
21960;BME280;11144;43.030;25.108;2023-02-07T04:44:32;100949.94;;;-2.26;100.00
21960;BME280;11144;43.030;25.108;2023-02-07T04:46:06;100946.50;;;-2.25;100.00
21960;BME280;11144;43.030;25.108;2023-02-07T04:47:40;100955.34;;;-2.20;100.00
21960;BME280;11144;43.030;25.108;2023-02-07T04:49:13;100958.88;;;-2.18;100.00
21960;BME280;11144;43.030;25.108;2023-02-07T04:50:47;100950.28;;;-2.17;100.00
21960;BME280;11144;43.030;25.108;2023-02-07T04:52:20;100955.66;;;-2.12;100.00
21960;BME280;11144;43.030;25.108;2023-02-07T04:53:52;100959.88;;;-2.14;100.00
21960;BME280;11144;43.030;25.108;2023-02-07T04:55:27;100959.16;;;-2.12;100.00
21960;BME280;11144;43.030;25.108;2023-02-07T04:57:00;100959.16;;;-2.12;100.00
21960;BME280;11144;43.030;25.108;2023-02-07T04:58:33;100966.91;;;-2.12;100.00
21960;BME280;11144;43.030;25.108;2023-02-07T05:00:08;100965.13;;;-2.13;100.00
21960;BME280;11144;43.030;25.108;2023-02-07T05:01:41;100972.97;;;-2.11;100.00
21960;BME280;11144;43.030;25.108;2023-02-07T05:03:15;100969.59;;;-2.09;100.00
21960;BME280;11144;43.030;25.108;2023-02-07T05:04:47;100973.03;;;-2.10;100.00
21960;BME280;11144;43.030;25.108;2023-02-07T05:06:20;100974.78;;;-2.09;100.00
21960;BME280;11144;43.030;25.108;2023-02-07T05:07:54;100971.91;;;-2.16;100.00
21960;BME280;11144;43.030;25.108;2023-02-07T05:09:27;100979.47;;;-2.21;100.00
21960;BME280;11144;43.030;25.108;2023-02-07T05:11:02;100976.69;;;-2.25;100.00
21960;BME280;11144;43.030;25.108;2023-02-07T05:12:36;100976.75;;;-2.24;100.00
21960;BME280;11144;43.030;25.108;2023-02-07T05:14:10;100974.06;;;-2.27;100.00
21960;BME280;11144;43.030;25.108;2023-02-07T05:15:43;100980.50;;;-2.38;100.00
21960;BME280;11144;43.030;25.108;2023-02-07T05:17:16;100969.09;;;-2.41;100.00
21960;BME280;11144;43.030;25.108;2023-02-07T05:18:50;100971.63;;;-2.43;100.00
21960;BME280;11144;43.030;25.108;2023-02-07T05:20:24;100980.38;;;-2.41;100.00
21960;BME280;11144;43.030;25.108;2023-02-07T05:21:57;100978.84;;;-2.36;100.00
21960;BME280;11144;43.030;25.108;2023-02-07T05:23:30;100985.69;;;-2.38;100.00
21960;BME280;11144;43.030;25.108;2023-02-07T05:25:04;100982.13;;;-2.40;100.00
21960;BME280;11144;43.030;25.108;2023-02-07T05:26:39;100984.72;;;-2.40;100.00
21960;BME280;11144;43.030;25.108;2023-02-07T05:28:12;100982.06;;;-2.41;100.00
21960;BME280;11144;43.030;25.108;2023-02-07T05:29:45;100983.03;;;-2.39;100.00
21960;BME280;11144;43.030;25.108;2023-02-07T05:31:20;100990.03;;;-2.37;100.00
21960;BME280;11144;43.030;25.108;2023-02-07T05:33:13;100989.19;;;-2.36;100.00
21960;BME280;11144;43.030;25.108;2023-02-07T05:34:46;100993.47;;;-2.36;100.00
21960;BME280;11144;43.030;25.108;2023-02-07T05:36:18;100994.38;;;-2.36;100.00
21960;BME280;11144;43.030;25.108;2023-02-07T05:37:51;100992.84;;;-2.31;100.00
21960;BME280;11144;43.030;25.108;2023-02-07T05:39:24;100999.88;;;-2.28;100.00
21960;BME280;11144;43.030;25.108;2023-02-07T05:40:57;101001.72;;;-2.26;100.00
21960;BME280;11144;43.030;25.108;2023-02-07T05:42:32;101000.19;;;-2.21;100.00
21960;BME280;11144;43.030;25.108;2023-02-07T05:44:05;101007.13;;;-2.20;100.00
21960;BME280;11144;43.030;25.108;2023-02-07T05:45:39;101007.03;;;-2.23;100.00
21960;BME280;11144;43.030;25.108;2023-02-07T05:47:12;101008.66;;;-2.25;100.00
21960;BME280;11144;43.030;25.108;2023-02-07T05:48:45;101010.41;;;-2.24;100.00
21960;BME280;11144;43.030;25.108;2023-02-07T05:50:19;101005.22;;;-2.24;100.00
21960;BME280;11144;43.030;25.108;2023-02-07T05:51:51;101010.31;;;-2.27;100.00
21960;BME280;11144;43.030;25.108;2023-02-07T05:53:24;101010.41;;;-2.24;100.00
21960;BME280;11144;43.030;25.108;2023-02-07T05:54:58;101019.00;;;-2.25;100.00
21960;BME280;11144;43.030;25.108;2023-02-07T05:56:30;101015.72;;;-2.41;100.00
21960;BME280;11144;43.030;25.108;2023-02-07T05:58:04;101018.00;;;-2.49;100.00
21960;BME280;11144;43.030;25.108;2023-02-07T05:59:38;101025.47;;;-2.55;100.00
21960;BME280;11144;43.030;25.108;2023-02-07T06:01:11;101019.59;;;-2.51;100.00
21960;BME280;11144;43.030;25.108;2023-02-07T06:02:45;101026.97;;;-2.41;100.00
21960;BME280;11144;43.030;25.108;2023-02-07T06:04:17;101029.00;;;-2.34;100.00
21960;BME280;11144;43.030;25.108;2023-02-07T06:05:50;101023.88;;;-2.32;100.00
21960;BME280;11144;43.030;25.108;2023-02-07T06:07:23;101027.75;;;-2.23;100.00
21960;BME280;11144;43.030;25.108;2023-02-07T06:08:56;101029.88;;;-2.13;100.00
21960;BME280;11144;43.030;25.108;2023-02-07T06:10:30;101027.41;;;-2.10;100.00
21960;BME280;11144;43.030;25.108;2023-02-07T06:12:04;101027.81;;;-2.01;100.00
21960;BME280;11144;43.030;25.108;2023-02-07T06:13:38;101016.13;;;-1.91;100.00
21960;BME280;11144;43.030;25.108;2023-02-07T06:15:12;101025.84;;;-1.86;100.00
21960;BME280;11144;43.030;25.108;2023-02-07T06:16:46;101025.09;;;-1.83;100.00
21960;BME280;11144;43.030;25.108;2023-02-07T06:18:19;101024.56;;;-1.75;100.00
21960;BME280;11144;43.030;25.108;2023-02-07T06:19:52;101021.41;;;-1.68;100.00
21960;BME280;11144;43.030;25.108;2023-02-07T06:21:25;101018.75;;;-1.69;100.00
21960;BME280;11144;43.030;25.108;2023-02-07T06:23:15;101029.22;;;-1.66;100.00
21960;BME280;11144;43.030;25.108;2023-02-07T06:24:49;101024.03;;;-1.66;100.00
21960;BME280;11144;43.030;25.108;2023-02-07T06:26:23;101021.63;;;-1.62;100.00
21960;BME280;11144;43.030;25.108;2023-02-07T06:27:56;101019.75;;;-1.66;100.00
21960;BME280;11144;43.030;25.108;2023-02-07T06:29:31;101024.28;;;-1.60;100.00
21960;BME280;11144;43.030;25.108;2023-02-07T06:31:04;101028.97;;;-1.52;100.00
21960;BME280;11144;43.030;25.108;2023-02-07T06:32:38;101018.81;;;-1.46;100.00
21960;BME280;11144;43.030;25.108;2023-02-07T06:34:11;101027.66;;;-1.41;100.00
21960;BME280;11144;43.030;25.108;2023-02-07T06:35:45;101023.41;;;-1.39;100.00
21960;BME280;11144;43.030;25.108;2023-02-07T06:37:18;101024.63;;;-1.31;100.00
21960;BME280;11144;43.030;25.108;2023-02-07T06:38:51;101028.00;;;-1.32;100.00
21960;BME280;11144;43.030;25.108;2023-02-07T06:40:26;101028.38;;;-1.23;100.00
21960;BME280;11144;43.030;25.108;2023-02-07T06:41:59;101021.84;;;-1.13;100.00
21960;BME280;11144;43.030;25.108;2023-02-07T06:43:32;101027.53;;;-1.00;100.00
21960;BME280;11144;43.030;25.108;2023-02-07T06:45:08;101029.66;;;-0.90;100.00
21960;BME280;11144;43.030;25.108;2023-02-07T06:46:41;101030.63;;;-0.86;100.00
21960;BME280;11144;43.030;25.108;2023-02-07T06:48:15;101029.13;;;-0.81;100.00
21960;BME280;11144;43.030;25.108;2023-02-07T06:49:48;101026.47;;;-0.83;100.00
21960;BME280;11144;43.030;25.108;2023-02-07T06:51:21;101028.09;;;-0.85;100.00
21960;BME280;11144;43.030;25.108;2023-02-07T06:52:55;101033.53;;;-0.79;100.00
21960;BME280;11144;43.030;25.108;2023-02-07T06:54:33;101039.88;;;-0.71;100.00
21960;BME280;11144;43.030;25.108;2023-02-07T06:56:06;101034.81;;;-0.68;100.00
21960;BME280;11144;43.030;25.108;2023-02-07T06:57:39;101030.59;;;-0.64;100.00
21960;BME280;11144;43.030;25.108;2023-02-07T06:59:13;101027.22;;;-0.62;100.00
21960;BME280;11144;43.030;25.108;2023-02-07T07:00:48;101025.69;;;-0.57;100.00
21960;BME280;11144;43.030;25.108;2023-02-07T07:02:21;101029.38;;;-0.50;100.00
21960;BME280;11144;43.030;25.108;2023-02-07T07:03:54;101033.78;;;-0.48;100.00
21960;BME280;11144;43.030;25.108;2023-02-07T07:05:28;101041.69;;;-0.45;100.00
21960;BME280;11144;43.030;25.108;2023-02-07T07:07:01;101036.72;;;-0.39;100.00
21960;BME280;11144;43.030;25.108;2023-02-07T07:08:35;101036.72;;;-0.39;100.00
21960;BME280;11144;43.030;25.108;2023-02-07T07:10:08;101030.63;;;-0.39;100.00
21960;BME280;11144;43.030;25.108;2023-02-07T07:11:41;101033.28;;;-0.38;100.00
21960;BME280;11144;43.030;25.108;2023-02-07T07:13:15;101031.41;;;-0.42;100.00
21960;BME280;11144;43.030;25.108;2023-02-07T07:14:48;101037.41;;;-0.43;100.00
21960;BME280;11144;43.030;25.108;2023-02-07T07:16:23;101028.09;;;-0.38;100.00
21960;BME280;11144;43.030;25.108;2023-02-07T07:17:56;101030.69;;;-0.38;100.00
21960;BME280;11144;43.030;25.108;2023-02-07T07:19:29;101029.84;;;-0.37;100.00
21960;BME280;11144;43.030;25.108;2023-02-07T07:21:03;101031.84;;;-0.30;100.00
21960;BME280;11144;43.030;25.108;2023-02-07T07:22:36;101031.72;;;-0.33;100.00
21960;BME280;11144;43.030;25.108;2023-02-07T07:24:09;101028.28;;;-0.32;100.00
21960;BME280;11144;43.030;25.108;2023-02-07T07:25:43;101021.16;;;-0.39;100.00
21960;BME280;11144;43.030;25.108;2023-02-07T07:27:16;101029.75;;;-0.40;100.00
21960;BME280;11144;43.030;25.108;2023-02-07T07:28:49;101019.47;;;-0.37;100.00
21960;BME280;11144;43.030;25.108;2023-02-07T07:30:23;101017.81;;;-0.35;100.00
21960;BME280;11144;43.030;25.108;2023-02-07T07:31:58;101020.41;;;-0.35;100.00
21960;BME280;11144;43.030;25.108;2023-02-07T07:33:31;101019.47;;;-0.37;100.00
21960;BME280;11144;43.030;25.108;2023-02-07T07:35:05;101006.53;;;-0.35;100.00
21960;BME280;11144;43.030;25.108;2023-02-07T07:36:39;101020.94;;;-0.20;100.00
21960;BME280;11144;43.030;25.108;2023-02-07T07:38:12;101021.47;;;-0.05;100.00
21960;BME280;11144;43.030;25.108;2023-02-07T07:39:45;101022.69;;;0.07;100.00
21960;BME280;11144;43.030;25.108;2023-02-07T07:41:19;100996.69;;;0.07;100.00
21960;BME280;11144;43.030;25.108;2023-02-07T07:42:52;101010.16;;;0.20;100.00
21960;BME280;11144;43.030;25.108;2023-02-07T07:44:44;101019.97;;;0.29;100.00
21960;BME280;11144;43.030;25.108;2023-02-07T07:46:17;101009.75;;;0.35;100.00
21960;BME280;11144;43.030;25.108;2023-02-07T07:47:52;101015.16;;;0.41;100.00
21960;BME280;11144;43.030;25.108;2023-02-07T07:49:25;101010.22;;;0.50;100.00
21960;BME280;11144;43.030;25.108;2023-02-07T07:50:59;101014.25;;;0.67;100.00
21960;BME280;11144;43.030;25.108;2023-02-07T07:52:32;100997.69;;;0.93;100.00
21960;BME280;11144;43.030;25.108;2023-02-07T07:54:06;101008.72;;;1.14;100.00
21960;BME280;11144;43.030;25.108;2023-02-07T07:55:39;100997.03;;;1.31;100.00
21960;BME280;11144;43.030;25.108;2023-02-07T07:57:12;100999.06;;;1.41;100.00
21960;BME280;11144;43.030;25.108;2023-02-07T07:58:45;101002.09;;;1.56;100.00
21960;BME280;11144;43.030;25.108;2023-02-07T08:00:19;101002.34;;;1.65;100.00
21960;BME280;11144;43.030;25.108;2023-02-07T08:01:52;100999.09;;;1.73;100.00
21960;BME280;11144;43.030;25.108;2023-02-07T08:03:27;101002.53;;;1.72;100.00
21960;BME280;11144;43.030;25.108;2023-02-07T08:05:00;100999.50;;;1.88;100.00
21960;BME280;11144;43.030;25.108;2023-02-07T08:06:34;101001.91;;;1.81;100.00
21960;BME280;11144;43.030;25.108;2023-02-07T08:08:07;101000.97;;;1.77;100.00
21960;BME280;11144;43.030;25.108;2023-02-07T08:09:40;100999.47;;;2.21;100.00
21960;BME280;11144;43.030;25.108;2023-02-07T08:11:14;101002.09;;;2.58;100.00
21960;BME280;11144;43.030;25.108;2023-02-07T08:12:47;100997.06;;;2.67;100.00